Time;durP1;ratioP1;P1;durP2;ratioP2;P2;SDS_P1;SDS_P2;PMS_P1;PMS_P2;Temp;Humidity;BMP_temperature;BMP_pressure;BME280_temperature;BME280_humidity;BME280_pressure;Samples;Min_cycle;Max_cycle;Signal;HPM_P1;HPM_P2
2023/04/07 00:02:08;;;;;;;;;49.00;39.00;;;;;6.74;59.42;98677.72;6185793;28;96285;-63
2023/04/07 00:05:12;;;;;;;;;45.80;37.60;;;;;6.66;59.64;98661.81;6252131;27;97680;-63
2023/04/07 00:08:15;;;;;;;;;47.00;38.00;;;;;6.78;59.28;98673.59;6252812;27;96600;-63
2023/04/07 00:11:20;;;;;;;;;50.00;40.00;;;;;6.77;59.49;98665.75;6184613;28;96234;-64
2023/04/07 00:14:23;;;;;;;;;48.20;39.00;;;;;6.68;59.45;98659.75;6251092;27;98505;-62
2023/04/07 00:17:27;;;;;;;;;44.80;37.80;;;;;6.69;59.68;98664.09;6251928;27;98317;-63
2023/04/07 00:20:30;;;;;;;;;46.00;38.00;;;;;6.73;59.54;98665.34;6252420;27;96930;-62
2023/04/07 00:23:33;;;;;;;;;49.00;40.00;;;;;6.74;59.64;98658.13;6252697;27;96609;-63
2023/04/07 00:26:38;;;;;;;;;49.00;40.00;;;;;6.65;59.69;98657.47;6189135;28;96310;-63
2023/04/07 00:29:45;;;;;;;;;49.40;39.00;;;;;6.73;59.69;98661.81;6240911;27;98913;-64
2023/04/07 00:32:50;;;;;;;;;45.60;36.00;;;;;6.78;59.70;98657.53;6257641;27;96566;-64
2023/04/07 00:35:56;;;;;;;;;47.00;39.00;;;;;6.67;59.91;98647.38;6237755;27;96592;-62
2023/04/07 00:39:00;;;;;;;;;47.00;38.00;;;;;6.68;59.90;98650.91;6256122;27;99679;-64
2023/04/07 00:42:05;;;;;;;;;49.00;40.00;;;;;6.68;59.90;98645.53;6189564;28;96250;-64
2023/04/07 00:45:10;;;;;;;;;45.75;37.00;;;;;6.69;60.00;98642.66;6189001;28;96467;-64
2023/04/07 00:48:13;;;;;;;;;46.80;38.20;;;;;6.60;60.16;98648.41;6188974;28;96970;-64
2023/04/07 00:51:17;;;;;;;;;48.25;39.75;;;;;6.67;60.01;98638.53;6189224;28;96510;-62
2023/04/07 00:54:21;;;;;;;;;47.40;39.60;;;;;6.72;59.95;98642.25;6189292;28;96301;-63
2023/04/07 00:57:26;;;;;;;;;46.00;38.50;;;;;6.63;60.23;98642.63;6189517;28;96290;-63
2023/04/07 01:00:32;;;;;;;;;49.00;39.40;;;;;6.57;60.32;98638.09;6239978;27;96758;-64
2023/04/07 01:03:45;;;;;;;;;48.00;39.00;;;;;6.48;60.60;98635.59;6256754;27;96188;-64
2023/04/07 01:06:53;;;;;;;;;47.00;38.50;;;;;6.57;60.34;98635.41;6188895;28;96497;-63
2023/04/07 01:10:06;;;;;;;;;45.00;38.00;;;;;6.37;60.63;98616.59;6255878;27;96280;-64
2023/04/07 01:13:23;;;;;;;;;45.60;38.00;;;;;6.43;60.82;98642.59;6256138;27;97338;-64
2023/04/07 01:16:36;;;;;;;;;45.00;36.80;;;;;6.45;60.95;98646.69;6257388;27;96188;-64
2023/04/07 01:19:43;;;;;;;;;48.00;39.40;;;;;6.52;60.69;98642.19;6257259;27;96319;-64
2023/04/07 01:22:54;;;;;;;;;48.60;40.00;;;;;6.56;60.55;98634.56;6256938;27;96268;-64
2023/04/07 01:26:17;;;;;;;;;47.00;39.00;;;;;6.45;60.82;98635.97;6255776;27;96683;-64
2023/04/07 01:29:33;;;;;;;;;44.25;36.75;;;;;6.56;60.55;98628.38;6239533;27;99224;-63
2023/04/07 01:32:38;;;;;;;;;44.00;37.60;;;;;6.56;60.74;98625.72;6256445;27;96397;-64
2023/04/07 01:35:42;;;;;;;;;45.75;38.50;;;;;6.65;60.59;98616.47;6188653;28;96237;-64
2023/04/07 01:38:46;;;;;;;;;45.60;36.40;;;;;6.73;60.30;98614.44;6238693;27;96598;-63
2023/04/07 01:41:51;;;;;;;;;47.60;36.60;;;;;6.76;59.98;98605.97;6255282;27;96458;-63
2023/04/07 01:44:58;;;;;;;;;48.50;39.00;;;;;6.76;59.96;98605.16;6255184;27;99060;-63
2023/04/07 01:48:05;;;;;;;;;45.80;37.00;;;;;6.75;60.09;98600.81;6188227;28;96203;-63
2023/04/07 01:51:16;;;;;;;;;47.40;39.00;;;;;6.81;59.84;98600.00;6236420;27;96597;-64
2023/04/07 01:54:21;;;;;;;;;46.50;38.00;;;;;6.86;59.69;98610.94;6239086;27;98637;-64
2023/04/07 01:57:24;;;;;;;;;40.50;36.00;;;;;6.90;59.67;98613.00;6256986;27;96157;-63
2023/04/07 02:00:35;;;;;;;;;47.60;37.40;;;;;6.90;59.39;98620.22;6239023;27;96624;-62
2023/04/07 02:03:56;;;;;;;;;44.80;36.00;;;;;6.80;59.69;98628.66;6255383;27;96253;-63
2023/04/07 02:07:04;;;;;;;;;43.00;36.00;;;;;6.86;59.63;98629.69;6188688;28;96666;-63
2023/04/07 02:10:16;;;;;;;;;44.40;36.40;;;;;6.85;59.62;98622.69;6255880;27;96348;-63
2023/04/07 02:13:21;;;;;;;;;48.80;38.20;;;;;6.76;59.64;98614.00;6255876;27;96258;-62
2023/04/07 02:16:29;;;;;;;;;42.40;36.00;;;;;6.78;59.86;98606.63;6238196;27;98343;-63
2023/04/07 02:19:34;;;;;;;;;44.40;36.00;;;;;6.71;60.14;98616.47;6188560;28;96695;-63
2023/04/07 02:22:38;;;;;;;;;45.60;36.20;;;;;6.69;60.22;98605.16;6238724;27;96659;-63
2023/04/07 02:25:42;;;;;;;;;47.00;40.00;;;;;6.73;60.22;98610.94;6237641;27;96696;-64
2023/04/07 02:28:45;;;;;;;;;43.00;35.00;;;;;6.73;60.06;98611.75;6255505;27;96259;-63
2023/04/07 02:31:50;;;;;;;;;45.00;38.00;;;;;6.72;60.29;98604.75;6237492;27;96615;-63
2023/04/07 02:34:53;;;;;;;;;45.00;37.60;;;;;6.69;60.35;98605.16;6254393;27;96213;-63
2023/04/07 02:37:57;;;;;;;;;49.00;38.00;;;;;6.73;60.32;98603.72;6254847;27;96259;-62
2023/04/07 02:41:00;;;;;;;;;49.20;39.80;;;;;6.63;60.27;98592.56;6238190;27;98353;-63
2023/04/07 02:44:05;;;;;;;;;49.40;40.00;;;;;6.57;60.69;98595.22;6255884;27;98389;-63
2023/04/07 02:47:10;;;;;;;;;46.40;38.00;;;;;6.70;60.56;98598.75;6236966;27;98576;-62
2023/04/07 02:50:13;;;;;;;;;45.20;37.80;;;;;6.69;60.56;98605.16;6254973;27;96288;-64
2023/04/07 02:53:16;;;;;;;;;48.00;38.00;;;;;6.72;60.40;98601.22;6271578;27;96363;-63
2023/04/07 02:56:20;;;;;;;;;46.00;38.20;;;;;6.71;60.51;98591.53;6188547;27;96881;-63
2023/04/07 02:59:23;;;;;;;;;46.60;36.00;;;;;6.67;60.60;98599.16;6236435;27;97143;-63
2023/04/07 03:02:28;;;;;;;;;46.40;38.00;;;;;6.70;60.57;98601.44;6255173;27;96189;-63
2023/04/07 03:05:31;;;;;;;;;47.00;38.00;;;;;6.67;60.78;98598.34;6254927;27;97520;-63
2023/04/07 03:08:36;;;;;;;;;49.40;39.40;;;;;6.68;60.66;98591.97;6253702;27;96049;-64
2023/04/07 03:11:41;;;;;;;;;48.80;38.20;;;;;6.74;60.55;98585.78;6254763;27;96205;-63
2023/04/07 03:14:45;;;;;;;;;45.00;37.00;;;;;6.68;60.72;98591.97;6255467;27;96207;-64
2023/04/07 03:17:50;;;;;;;;;45.20;36.00;;;;;6.61;60.83;98583.06;6187908;28;96308;-63
2023/04/07 03:20:55;;;;;;;;;45.00;37.00;;;;;6.67;60.76;98583.09;6251247;27;96245;-62
2023/04/07 03:23:58;;;;;;;;;48.00;38.75;;;;;6.60;60.96;98582.25;6289143;27;96341;-63
2023/04/07 03:27:02;;;;;;;;;46.40;37.40;;;;;6.56;61.09;98586.38;6232496;27;96332;-63
2023/04/07 03:30:15;;;;;;;;;49.25;38.00;;;;;6.57;61.29;98585.34;6213857;27;98366;-63
2023/04/07 03:33:21;;;;;;;;;46.80;38.00;;;;;6.54;61.33;98583.09;6297820;27;96198;-62
2023/04/07 03:36:26;;;;;;;;;48.60;39.00;;;;;6.61;61.22;98591.94;6296740;27;96627;-63
2023/04/07 03:39:32;;;;;;;;;44.00;35.00;;;;;6.62;61.04;98588.25;6289117;27;96877;-63
2023/04/07 03:42:36;;;;;;;;;45.20;36.00;;;;;6.66;61.08;98600.19;6254793;27;96209;-63
2023/04/07 03:45:42;;;;;;;;;46.20;37.00;;;;;6.75;60.76;98607.00;6254354;27;96427;-63
2023/04/07 03:48:47;;;;;;;;;44.75;36.00;;;;;6.78;60.70;98597.75;6212837;27;97271;-63
2023/04/07 03:51:51;;;;;;;;;43.20;35.80;;;;;6.75;60.59;98582.06;6211384;27;96544;-63
2023/04/07 03:54:55;;;;;;;;;44.40;37.00;;;;;6.77;60.82;98599.59;6251011;27;96639;-63
2023/04/07 03:58:04;;;;;;;;;44.20;36.00;;;;;6.87;60.52;98605.38;6235776;27;96796;-63
2023/04/07 04:01:10;;;;;;;;;47.75;37.75;;;;;6.88;60.35;98601.69;6257731;27;96353;-63
2023/04/07 04:04:16;;;;;;;;;45.40;37.00;;;;;6.86;60.38;98610.94;6257543;27;96380;-63
2023/04/07 04:07:20;;;;;;;;;45.00;36.00;;;;;6.87;60.33;98618.78;6190023;28;96304;-64
2023/04/07 04:10:26;;;;;;;;;45.00;36.00;;;;;6.91;60.31;98621.88;6271559;27;96468;-63
2023/04/07 04:13:30;;;;;;;;;46.80;38.00;;;;;6.91;60.35;98619.19;6257130;27;96202;-63
2023/04/07 04:16:38;;;;;;;;;42.20;35.20;;;;;6.90;60.23;98629.06;6263704;27;96759;-63
2023/04/07 04:19:55;;;;;;;;;49.00;38.00;;;;;6.93;60.41;98630.53;6257047;27;98492;-63
2023/04/07 04:23:15;;;;;;;;;45.00;38.00;;;;;6.83;60.70;98619.41;6264999;27;96319;-64
2023/04/07 04:26:24;;;;;;;;;47.40;39.00;;;;;6.87;60.53;98593.84;6253855;27;96351;-63
2023/04/07 04:29:33;;;;;;;;;47.00;38.00;;;;;6.87;60.72;98583.94;6236964;27;98139;-63
2023/04/07 04:32:39;;;;;;;;;48.00;39.00;;;;;6.78;60.93;98570.97;6253742;27;96562;-63
2023/04/07 04:35:46;;;;;;;;;46.67;38.00;;;;;6.67;61.14;98566.19;6179646;28;96692;-64
2023/04/07 04:38:54;;;;;;;;;47.00;38.00;;;;;6.79;60.98;98610.91;6254580;27;96906;-63
2023/04/07 04:41:57;;;;;;;;;48.25;39.00;;;;;6.82;60.76;98599.81;6237930;27;98457;-63
2023/04/07 04:45:08;;;;;;;;;46.50;39.00;;;;;6.80;60.92;98603.72;6238769;27;97115;-63
2023/04/07 04:48:13;;;;;;;;;47.80;38.20;;;;;6.79;61.13;98620.84;6254200;27;96312;-63
2023/04/07 04:51:18;;;;;;;;;44.40;36.00;;;;;6.86;60.93;98614.44;6254464;27;96417;-63
2023/04/07 04:54:26;;;;;;;;;43.40;36.00;;;;;6.92;60.63;98626.19;6254844;27;96665;-64
2023/04/07 04:57:30;;;;;;;;;46.60;38.80;;;;;6.90;60.68;98604.13;6265643;27;96284;-64
2023/04/07 05:00:34;;;;;;;;;42.00;35.00;;;;;6.96;60.71;98595.28;6231792;27;96508;-63
2023/04/07 05:03:41;;;;;;;;;45.60;36.40;;;;;7.10;60.28;98620.22;6241116;27;96323;-63
2023/04/07 05:06:54;;;;;;;;;44.20;36.00;;;;;7.09;60.19;98643.53;6260087;27;96280;-62
2023/04/07 05:10:02;;;;;;;;;40.00;32.40;;;;;7.16;60.07;98640.84;6247249;27;96764;-63
2023/04/07 05:13:08;;;;;;;;;45.00;38.00;;;;;7.20;59.72;98642.09;6240365;27;96847;-63
2023/04/07 05:16:12;;;;;;;;;39.80;33.00;;;;;7.25;59.81;98643.13;6244952;27;97042;-63
2023/04/07 05:19:15;;;;;;;;;38.80;32.60;;;;;7.27;59.55;98630.34;6245728;27;96598;-63
2023/04/07 05:22:21;;;;;;;;;38.75;33.00;;;;;7.25;59.63;98623.53;6250913;27;97722;-63
2023/04/07 05:25:26;;;;;;;;;39.00;33.00;;;;;7.24;59.60;98614.66;6245151;27;96999;-64
2023/04/07 05:28:35;;;;;;;;;42.20;35.00;;;;;7.26;59.61;98623.31;6269229;27;96363;-64
2023/04/07 05:31:42;;;;;;;;;41.80;33.20;;;;;7.21;59.80;98624.97;6249581;27;97189;-63
2023/04/07 05:34:49;;;;;;;;;46.67;36.00;;;;;7.22;59.84;98624.78;6262669;27;96907;-64
2023/04/07 05:37:54;;;;;;;;;36.00;32.00;;;;;7.21;59.82;98624.97;6233183;27;98287;-64
2023/04/07 05:40:57;;;;;;;;;40.00;35.00;;;;;7.25;59.69;98619.00;6247589;27;96591;-64
2023/04/07 05:44:06;;;;;;;;;42.40;34.80;;;;;7.23;59.79;98626.41;6278668;27;97602;-64
2023/04/07 05:47:14;;;;;;;;;47.60;37.00;;;;;7.22;59.99;98619.41;6226119;27;98327;-64
2023/04/07 05:50:18;;;;;;;;;43.00;36.00;;;;;7.27;59.71;98626.84;6246396;27;96660;-63
2023/04/07 05:53:25;;;;;;;;;45.00;36.00;;;;;7.29;59.51;98630.94;6249413;27;97533;-64
2023/04/07 05:56:28;;;;;;;;;43.00;34.60;;;;;7.35;59.55;98621.25;6244037;27;97514;-63
2023/04/07 05:59:31;;;;;;;;;42.00;33.00;;;;;7.41;59.42;98617.75;6246800;27;96839;-64
2023/04/07 06:02:36;;;;;;;;;42.00;35.50;;;;;7.40;59.08;98600.84;6247938;27;96760;-63
2023/04/07 06:05:42;;;;;;;;;37.50;32.25;;;;;7.52;59.03;98601.03;6182977;28;96418;-64
2023/04/07 06:08:48;;;;;;;;;40.60;33.00;;;;;7.47;58.94;98608.88;6248693;27;96642;-63
2023/04/07 06:11:52;;;;;;;;;41.40;32.60;;;;;7.50;59.10;98599.56;6164159;28;96761;-64
2023/04/07 06:14:56;;;;;;;;;39.00;32.60;;;;;7.50;59.14;98605.75;6238314;27;96433;-63
2023/04/07 06:18:01;;;;;;;;;44.00;34.00;;;;;7.29;59.62;98601.44;6220722;27;96471;-63
2023/04/07 06:21:05;;;;;;;;;40.25;32.00;;;;;7.28;59.49;98605.16;6247890;27;96222;-64
2023/04/07 06:24:09;;;;;;;;;38.20;32.00;;;;;7.32;59.56;98605.59;6248272;27;96852;-63
2023/04/07 06:27:13;;;;;;;;;41.75;33.25;;;;;7.52;59.18;98613.63;6228777;27;96202;-64
2023/04/07 06:30:16;;;;;;;;;40.00;32.20;;;;;7.61;58.92;98610.50;6223199;27;96945;-63
2023/04/07 06:33:24;;;;;;;;;42.00;35.00;;;;;7.74;58.73;98623.88;6180815;28;96528;-65
2023/04/07 06:36:27;;;;;;;;;38.20;31.60;;;;;7.73;58.58;98627.59;6245923;27;96466;-64
2023/04/07 06:39:33;;;;;;;;;40.80;34.40;;;;;7.69;58.46;98609.44;6184176;27;96547;-64
2023/04/07 06:42:36;;;;;;;;;39.75;33.00;;;;;7.69;58.55;98604.91;6181663;28;96645;-64
2023/04/07 06:45:46;;;;;;;;;37.20;31.60;;;;;7.75;58.48;98606.75;6247715;27;96758;-64
2023/04/07 06:48:49;;;;;;;;;41.80;32.80;;;;;7.81;57.85;98613.97;6245851;27;97489;-64
2023/04/07 06:51:53;;;;;;;;;43.00;33.40;;;;;7.77;58.39;98615.41;6248653;27;96876;-64
2023/04/07 06:54:58;;;;;;;;;39.00;32.40;;;;;7.75;58.37;98617.50;6231234;27;98767;-64
2023/04/07 06:58:01;;;;;;;;;39.75;32.75;;;;;7.69;58.54;98610.28;6181948;28;96292;-64
2023/04/07 07:01:06;;;;;;;;;38.00;32.00;;;;;7.72;58.36;98615.22;6266432;27;98460;-64
2023/04/07 07:04:09;;;;;;;;;35.60;31.00;;;;;7.80;58.19;98614.16;6313347;27;96256;-64
2023/04/07 07:07:13;;;;;;;;;34.40;31.00;;;;;7.78;58.08;98613.53;6245546;27;96348;-64
2023/04/07 07:10:19;;;;;;;;;39.00;31.60;;;;;7.80;58.19;98625.72;6180856;28;96427;-64
2023/04/07 07:13:24;;;;;;;;;37.00;32.00;;;;;7.82;58.24;98612.91;6183961;28;96357;-64
2023/04/07 07:16:28;;;;;;;;;39.00;31.67;;;;;7.89;57.96;98620.94;6251539;27;96737;-63
2023/04/07 07:19:31;;;;;;;;;33.00;30.25;;;;;7.88;57.97;98618.47;6183106;28;98069;-64
2023/04/07 07:22:35;;;;;;;;;43.50;35.50;;;;;7.92;57.80;98627.75;6250756;27;98296;-64
2023/04/07 07:25:39;;;;;;;;;38.80;33.00;;;;;7.89;57.88;98630.88;6220552;27;97034;-64
2023/04/07 07:28:43;;;;;;;;;35.00;29.00;;;;;7.89;57.88;98612.91;6248235;27;97948;-64
2023/04/07 07:31:46;;;;;;;;;33.00;28.00;;;;;7.89;57.99;98614.75;6183410;28;96376;-64
2023/04/07 07:34:49;;;;;;;;;35.00;31.00;;;;;7.79;58.31;98617.88;6248732;27;97073;-64
2023/04/07 07:37:53;;;;;;;;;37.00;32.00;;;;;7.85;58.49;98622.41;6249043;27;96687;-64
2023/04/07 07:40:57;;;;;;;;;38.00;32.00;;;;;7.87;58.30;98616.84;6269180;27;96813;-64
2023/04/07 07:44:01;;;;;;;;;37.00;32.00;;;;;7.92;58.24;98625.06;6250548;27;96299;-64
2023/04/07 07:47:05;;;;;;;;;41.00;32.80;;;;;7.97;57.97;98623.41;6271120;27;96288;-64
2023/04/07 07:50:08;;;;;;;;;42.80;33.00;;;;;7.98;57.88;98632.28;6307628;27;96269;-64
2023/04/07 07:53:12;;;;;;;;;45.00;36.00;;;;;8.01;58.20;98627.34;6248014;27;96882;-64
2023/04/07 07:56:16;;;;;;;;;34.00;30.60;;;;;7.99;57.90;98617.81;6182799;28;96182;-64
2023/04/07 07:59:20;;;;;;;;;39.40;33.00;;;;;7.94;58.22;98617.63;6246155;27;96497;-64
2023/04/07 08:02:29;;;;;;;;;38.25;33.75;;;;;8.09;58.23;98615.53;6277503;27;97605;-64
2023/04/07 08:05:33;;;;;;;;;35.25;30.00;;;;;8.20;57.66;98612.19;6273168;27;98290;-64
2023/04/07 08:08:36;;;;;;;;;35.25;32.00;;;;;8.27;57.59;98615.66;6276460;27;99156;-64
2023/04/07 08:11:41;;;;;;;;;45.80;34.60;;;;;8.38;57.17;98614.19;6247907;27;96772;-64
2023/04/07 08:14:45;;;;;;;;;35.20;32.00;;;;;8.51;56.69;98616.78;6241126;27;97821;-64
2023/04/07 08:17:48;;;;;;;;;35.80;31.40;;;;;8.52;56.60;98619.28;6184790;27;96888;-65
2023/04/07 08:20:52;;;;;;;;;33.00;30.00;;;;;8.52;56.70;98618.44;6246223;27;98532;-63
2023/04/07 08:23:56;;;;;;;;;31.80;28.00;;;;;8.57;56.36;98632.06;6179288;28;97469;-64
2023/04/07 08:27:01;;;;;;;;;32.50;30.50;;;;;8.58;56.31;98637.22;6237563;27;98705;-64
2023/04/07 08:30:06;;;;;;;;;32.75;29.50;;;;;8.62;56.23;98625.00;6166644;28;96221;-64
2023/04/07 08:33:09;;;;;;;;;32.80;28.20;;;;;8.60;56.09;98640.50;6219544;27;98355;-64
2023/04/07 08:36:12;;;;;;;;;30.00;27.00;;;;;8.64;56.20;98651.69;6246765;27;96436;-64
2023/04/07 08:39:16;;;;;;;;;33.00;30.00;;;;;8.69;56.04;98655.38;6181787;27;96886;-64
2023/04/07 08:42:26;;;;;;;;;29.40;26.00;;;;;8.72;55.74;98655.97;6179402;27;96656;-65
2023/04/07 08:45:31;;;;;;;;;33.50;28.00;;;;;8.78;55.77;98650.56;6233211;27;96202;-64
2023/04/07 08:48:37;;;;;;;;;27.00;24.40;;;;;8.81;55.48;98654.66;6159275;28;99018;-64
2023/04/07 08:51:46;;;;;;;;;28.20;25.60;;;;;8.83;55.54;98661.50;6250161;27;96210;-64
2023/04/07 08:54:49;;;;;;;;;26.00;23.00;;;;;8.83;55.47;98661.50;6185829;28;96467;-65
2023/04/07 08:57:55;;;;;;;;;26.40;26.00;;;;;8.82;55.48;98650.94;6184121;28;96774;-65
2023/04/07 09:00:59;;;;;;;;;24.00;23.20;;;;;8.85;55.46;98655.88;6263061;27;96545;-64
2023/04/07 09:04:03;;;;;;;;;24.80;23.80;;;;;8.74;55.58;98638.59;6184830;28;96600;-64
2023/04/07 09:07:07;;;;;;;;;29.25;27.25;;;;;8.80;55.58;98644.94;6251319;27;96782;-64
2023/04/07 09:10:10;;;;;;;;;26.60;23.60;;;;;8.79;55.47;98648.69;6234217;27;98371;-64
2023/04/07 09:13:15;;;;;;;;;26.00;23.60;;;;;8.77;55.76;98643.53;6183282;28;96891;-65
2023/04/07 09:16:19;;;;;;;;;28.00;25.60;;;;;8.74;55.58;98635.91;6181025;28;96718;-64
2023/04/07 09:19:25;;;;;;;;;28.00;27.00;;;;;8.62;55.86;98626.88;6247439;27;98861;-64
2023/04/07 09:22:36;;;;;;;;;31.50;28.50;;;;;8.52;56.21;98616.59;6250222;27;97149;-64
2023/04/07 09:25:39;;;;;;;;;26.00;26.00;;;;;8.52;56.33;98613.91;6180660;28;96631;-64
2023/04/07 09:28:45;;;;;;;;;30.00;27.00;;;;;8.55;56.52;98612.66;6249800;27;97086;-64
2023/04/07 09:31:50;;;;;;;;;27.33;22.33;;;;;8.55;56.47;98609.97;6183626;27;96430;-65
2023/04/07 09:34:59;;;;;;;;;28.60;26.00;;;;;8.54;56.46;98602.94;6184018;28;96275;-64
2023/04/07 09:38:04;;;;;;;;;34.40;29.60;;;;;8.65;56.66;98611.13;6182352;28;96597;-65
2023/04/07 09:41:09;;;;;;;;;29.60;27.40;;;;;8.77;56.58;98616.66;6250802;27;96386;-64
2023/04/07 09:44:14;;;;;;;;;31.20;27.40;;;;;8.80;56.15;98613.50;6250696;27;98565;-65
2023/04/07 09:47:17;;;;;;;;;30.20;27.40;;;;;8.90;56.20;98613.03;6183353;28;97037;-65
2023/04/07 09:50:34;;;;;;;;;27.00;24.00;;;;;8.85;56.02;98611.00;6246994;27;98479;-65
2023/04/07 09:53:43;;;;;;;;;32.40;29.00;;;;;8.93;55.96;98620.69;6255445;27;97534;-65
2023/04/07 09:56:47;;;;;;;;;28.50;26.00;;;;;8.89;55.90;98614.94;6231818;27;96844;-65
2023/04/07 09:59:56;;;;;;;;;30.40;25.00;;;;;8.90;56.04;98621.09;6183323;28;96337;-64
2023/04/07 10:03:00;;;;;;;;;29.60;27.40;;;;;8.88;55.96;98621.34;6250601;27;96901;-64
2023/04/07 10:06:05;;;;;;;;;32.40;29.40;;;;;8.88;56.18;98615.97;6235204;27;97029;-64
2023/04/07 10:09:09;;;;;;;;;25.60;23.60;;;;;8.92;56.18;98613.66;6252071;27;97028;-64
2023/04/07 10:12:15;;;;;;;;;28.60;27.60;;;;;8.87;56.01;98616.16;6185149;27;96912;-64
2023/04/07 10:15:20;;;;;;;;;27.33;26.00;;;;;8.81;56.37;98600.91;6233577;27;96844;-64
2023/04/07 10:18:29;;;;;;;;;29.60;27.40;;;;;8.88;56.31;98613.28;6250997;27;97157;-64
2023/04/07 10:21:36;;;;;;;;;28.20;25.80;;;;;8.94;56.31;98617.75;6172881;28;96522;-64
2023/04/07 10:24:51;;;;;;;;;27.40;26.40;;;;;8.97;56.13;98625.41;6232466;27;98522;-63
2023/04/07 10:27:59;;;;;;;;;30.00;25.00;;;;;9.06;55.92;98620.59;6181320;28;96523;-63
2023/04/07 10:31:05;;;;;;;;;25.00;24.40;;;;;9.06;55.55;98625.97;6229938;27;98475;-64
2023/04/07 10:34:08;;;;;;;;;27.00;23.25;;;;;9.01;55.78;98623.09;6265943;27;96456;-64
2023/04/07 10:37:13;;;;;;;;;25.40;24.20;;;;;9.00;56.03;98621.44;6181588;28;96447;-63
2023/04/07 10:40:30;;;;;;;;;27.00;25.00;;;;;8.96;55.89;98614.88;6251660;27;99654;-63
2023/04/07 10:43:43;;;;;;;;;26.40;24.40;;;;;8.97;56.05;98616.50;6245498;27;98429;-63
2023/04/07 10:47:06;;;;;;;;;26.00;24.00;;;;;9.00;56.42;98603.44;6204287;27;96336;-63
2023/04/07 10:50:19;;;;;;;;;24.00;22.00;;;;;9.12;56.68;98606.25;6204709;27;96844;-64
2023/04/07 10:53:23;;;;;;;;;24.00;22.00;;;;;9.17;56.38;98606.44;6239661;27;96341;-63
2023/04/07 10:56:26;;;;;;;;;26.60;23.60;;;;;9.29;56.27;98609.22;6181977;27;96553;-63
2023/04/07 10:59:31;;;;;;;;;28.20;25.20;;;;;9.26;56.03;98613.19;6247906;27;98275;-63
2023/04/07 11:02:38;;;;;;;;;23.40;21.20;;;;;9.38;55.98;98622.16;6255491;27;96586;-63
2023/04/07 11:05:43;;;;;;;;;30.80;28.80;;;;;9.44;55.43;98620.47;6183021;28;96176;-64
2023/04/07 11:08:49;;;;;;;;;31.60;29.40;;;;;9.34;55.61;98623.66;6182330;28;96326;-63
2023/04/07 11:11:53;;;;;;;;;31.40;28.20;;;;;9.35;56.10;98627.19;6249616;27;96608;-64
2023/04/07 11:14:58;;;;;;;;;26.00;25.75;;;;;9.41;55.45;98631.69;6249443;27;96761;-63
2023/04/07 11:18:15;;;;;;;;;30.20;27.80;;;;;9.25;55.41;98614.22;6183296;28;96270;-64
2023/04/07 11:21:19;;;;;;;;;31.25;29.00;;;;;9.39;55.63;98631.06;6249341;27;97610;-63
2023/04/07 11:24:32;;;;;;;;;29.60;26.60;;;;;9.33;55.31;98623.91;6182067;28;96930;-63
2023/04/07 11:27:36;;;;;;;;;31.20;27.80;;;;;9.26;55.58;98621.25;6182722;28;96820;-63
2023/04/07 11:30:50;;;;;;;;;29.80;26.00;;;;;9.34;55.46;98625.53;6181275;27;98227;-63
2023/04/07 11:33:57;;;;;;;;;28.60;27.20;;;;;9.26;55.58;98623.13;6246853;27;96781;-64
2023/04/07 11:37:19;;;;;;;;;31.40;28.00;;;;;9.29;55.76;98636.94;6187574;27;96519;-63
2023/04/07 11:40:33;;;;;;;;;32.00;29.00;;;;;9.22;56.12;98625.44;6203367;27;96331;-64
2023/04/07 11:43:36;;;;;;;;;29.00;26.20;;;;;9.31;55.87;98628.66;6217598;27;98070;-63
2023/04/07 11:46:53;;;;;;;;;31.00;29.00;;;;;9.33;55.98;98623.91;6181230;28;96716;-64
2023/04/07 11:49:58;;;;;;;;;29.00;25.80;;;;;9.34;55.44;98626.34;6263693;27;96824;-64
2023/04/07 11:53:01;;;;;;;;;27.00;25.00;;;;;9.29;55.50;98633.44;6248064;27;96380;-64
2023/04/07 11:56:08;;;;;;;;;30.00;26.00;;;;;9.29;55.72;98633.44;6190805;27;97245;-64
2023/04/07 11:59:21;;;;;;;;;28.00;27.00;;;;;9.26;55.69;98626.63;6191469;27;96346;-64
2023/04/07 12:02:32;;;;;;;;;27.00;25.60;;;;;9.34;55.78;98626.34;6189143;27;97618;-64
2023/04/07 12:05:44;;;;;;;;;24.40;22.00;;;;;9.30;55.81;98627.00;6236534;27;98354;-64
2023/04/07 12:08:47;;;;;;;;;23.75;22.75;;;;;9.24;55.83;98623.31;6183462;28;96370;-64
2023/04/07 12:11:50;;;;;;;;;29.00;26.75;;;;;9.30;55.97;98621.63;6197751;27;98117;-64
2023/04/07 12:14:54;;;;;;;;;27.60;26.00;;;;;9.30;56.05;98625.16;6249618;27;96296;-64
2023/04/07 12:17:57;;;;;;;;;32.00;28.50;;;;;9.39;56.15;98623.00;6249839;27;96451;-64
2023/04/07 12:21:02;;;;;;;;;26.80;24.40;;;;;9.51;55.94;98632.00;6251436;27;98302;-64
2023/04/07 12:24:05;;;;;;;;;25.00;23.00;;;;;9.50;56.00;98633.03;6186607;28;96328;-64
2023/04/07 12:27:08;;;;;;;;;28.80;26.00;;;;;9.37;55.64;98627.78;6229215;27;99057;-64
2023/04/07 12:30:13;;;;;;;;;30.00;27.50;;;;;9.33;55.84;98634.66;6178437;28;96169;-65
2023/04/07 12:33:16;;;;;;;;;30.00;26.00;;;;;9.31;55.78;98634.03;6186908;27;96231;-64
2023/04/07 12:36:21;;;;;;;;;29.50;27.50;;;;;9.36;56.01;98635.03;6253608;27;96341;-64
2023/04/07 12:39:25;;;;;;;;;28.00;26.00;;;;;9.41;56.02;98639.75;6239159;27;96354;-64
2023/04/07 12:42:28;;;;;;;;;33.00;30.00;;;;;9.39;55.91;98639.13;6164685;28;96370;-64
2023/04/07 12:45:32;;;;;;;;;25.00;23.00;;;;;9.28;56.31;98637.19;6247582;27;98377;-65
2023/04/07 12:48:35;;;;;;;;;28.75;27.75;;;;;9.27;56.46;98638.22;6183665;28;97789;-64
2023/04/07 12:51:40;;;;;;;;;31.40;26.80;;;;;9.20;56.74;98640.94;6246258;27;96662;-64
2023/04/07 12:54:44;;;;;;;;;131.80;123.40;;;;;9.20;57.04;98637.44;6251810;27;98349;-64
2023/04/07 12:57:47;;;;;;;;;83.50;82.50;;;;;9.25;56.94;98629.53;6184799;28;96465;-64
2023/04/07 13:00:51;;;;;;;;;33.40;29.80;;;;;9.23;56.95;98637.84;6181853;28;96567;-64
2023/04/07 13:03:54;;;;;;;;;33.20;30.20;;;;;9.34;56.94;98638.97;6252705;27;96421;-64
2023/04/07 13:07:01;;;;;;;;;30.50;26.50;;;;;9.40;56.59;98651.56;6185456;28;96214;-64
2023/04/07 13:10:07;;;;;;;;;31.20;30.00;;;;;9.30;57.14;98638.59;6185572;27;96272;-64
2023/04/07 13:13:10;;;;;;;;;31.00;27.67;;;;;9.18;57.17;98634.97;6253219;27;96292;-64
2023/04/07 13:16:13;;;;;;;;;29.25;26.25;;;;;9.21;56.96;98633.72;6185019;28;96214;-64
2023/04/07 13:19:17;;;;;;;;;33.75;30.00;;;;;9.20;57.59;98629.38;6249817;27;96448;-64
2023/04/07 13:22:22;;;;;;;;;35.25;31.50;;;;;9.14;57.58;98637.25;6237567;27;96297;-64
2023/04/07 13:25:27;;;;;;;;;31.50;28.50;;;;;9.12;57.60;98635.84;6264291;27;96386;-65
2023/04/07 13:28:30;;;;;;;;;31.20;27.60;;;;;9.24;57.59;98636.78;6184740;28;97084;-64
2023/04/07 13:31:33;;;;;;;;;27.75;25.00;;;;;9.28;57.47;98642.56;6183834;28;97153;-64
2023/04/07 13:34:37;;;;;;;;;34.40;30.00;;;;;9.32;57.40;98647.28;6185497;28;96743;-65
2023/04/07 13:37:43;;;;;;;;;30.80;29.40;;;;;9.34;57.55;98653.25;6183563;28;96314;-65
2023/04/07 13:40:48;;;;;;;;;27.00;26.00;;;;;9.36;57.52;98650.34;6184706;28;96991;-65
2023/04/07 13:43:51;;;;;;;;;35.50;29.75;;;;;9.34;57.69;98649.72;6253077;27;97061;-65
2023/04/07 13:46:56;;;;;;;;;32.00;28.25;;;;;9.38;57.66;98646.38;6185484;28;96257;-65
2023/04/07 13:50:00;;;;;;;;;27.00;25.00;;;;;9.44;57.35;98648.19;6185863;28;96339;-65
2023/04/07 13:53:05;;;;;;;;;34.00;30.00;;;;;9.49;57.53;98647.53;6184333;28;96493;-65
2023/04/07 13:56:09;;;;;;;;;34.00;31.00;;;;;9.44;57.47;98650.88;6233952;27;98812;-65
2023/04/07 13:59:12;;;;;;;;;35.00;31.40;;;;;9.48;57.78;98643.22;6249436;27;96542;-64
2023/04/07 14:02:15;;;;;;;;;39.60;34.60;;;;;9.40;57.68;98636.25;6184866;27;96414;-64
2023/04/07 14:05:19;;;;;;;;;48.50;41.50;;;;;9.52;57.93;98649.81;6252637;27;98346;-65
2023/04/07 14:08:24;;;;;;;;;32.00;28.75;;;;;9.48;57.94;98659.38;6250853;27;98303;-64
2023/04/07 14:11:28;;;;;;;;;39.00;32.00;;;;;9.50;57.59;98657.25;6237859;27;96261;-63
2023/04/07 14:14:31;;;;;;;;;39.80;33.80;;;;;9.42;57.97;98641.41;6183652;28;96995;-63
2023/04/07 14:17:34;;;;;;;;;32.75;30.00;;;;;9.47;57.64;98666.63;6184054;28;96245;-64
2023/04/07 14:20:38;;;;;;;;;29.00;27.40;;;;;9.47;57.71;98666.63;6233892;27;97481;-64
2023/04/07 14:23:42;;;;;;;;;28.40;27.00;;;;;9.44;57.71;98666.22;6250327;27;96765;-64